Time;durP1;ratioP1;P1;durP2;ratioP2;P2;SDS_P1;SDS_P2;PMS_P1;PMS_P2;Temp;Humidity;BMP_temperature;BMP_pressure;BME280_temperature;BME280_humidity;BME280_pressure;Samples;Min_cycle;Max_cycle;Signal;HPM_P1;HPM_P2
2023/10/22 00:00:00;;;;;;;6.15;2.20;;;19.00;90.30;;;;;;6275113;22;20027;-72
2023/10/22 00:02:26;;;;;;;7.50;2.67;;;19.10;90.20;;;;;;6274643;22;20321;-73
2023/10/22 00:04:52;;;;;;;4.90;2.40;;;19.00;90.20;;;;;;6266561;22;20077;-74
2023/10/22 00:07:18;;;;;;;8.30;2.63;;;18.90;90.20;;;;;;6274790;22;20428;-74
2023/10/22 00:09:43;;;;;;;8.32;2.55;;;18.90;90.30;;;;;;6267077;22;20027;-73
2023/10/22 00:12:10;;;;;;;8.70;2.40;;;18.90;90.20;;;;;;6244594;23;20000;-73
2023/10/22 00:14:37;;;;;;;6.30;2.00;;;18.90;90.30;;;;;;6236705;23;20057;-73
2023/10/22 00:17:03;;;;;;;8.63;2.45;;;18.90;90.30;;;;;;6244635;23;20051;-73
2023/10/22 00:19:29;;;;;;;7.75;2.30;;;18.90;90.30;;;;;;6244180;23;20055;-73
2023/10/22 00:21:54;;;;;;;7.90;2.20;;;18.90;90.30;;;;;;6244487;23;20012;-73
2023/10/22 00:24:20;;;;;;;9.25;2.60;;;18.90;90.20;;;;;;6236875;23;20384;-73
2023/10/22 00:26:46;;;;;;;7.80;3.03;;;18.90;90.30;;;;;;6240204;23;20024;-71
2023/10/22 00:29:12;;;;;;;10.00;2.80;;;18.90;90.30;;;;;;6238909;23;20421;-74
2023/10/22 00:31:37;;;;;;;7.47;2.92;;;18.80;90.30;;;;;;6238716;23;20000;-74
2023/10/22 00:34:03;;;;;;;9.15;2.50;;;18.80;90.40;;;;;;6232990;23;20004;-74
2023/10/22 00:36:29;;;;;;;8.50;2.35;;;18.80;90.40;;;;;;6237539;23;20030;-74
2023/10/22 00:38:54;;;;;;;7.50;2.60;;;18.80;90.50;;;;;;6238515;23;19996;-73
2023/10/22 00:41:20;;;;;;;7.53;2.60;;;18.80;90.50;;;;;;6242164;23;20007;-74
2023/10/22 00:43:46;;;;;;;8.85;2.60;;;18.80;90.50;;;;;;6238564;23;20053;-73
2023/10/22 00:46:19;;;;;;;9.80;2.28;;;18.80;90.60;;;;;;6245408;23;20000;-73
2023/10/22 00:48:46;;;;;;;9.40;2.65;;;18.80;90.50;;;;;;6245943;23;20457;-73
2023/10/22 00:51:13;;;;;;;9.15;2.65;;;18.80;90.60;;;;;;6246215;23;20004;-75
2023/10/22 00:53:40;;;;;;;10.68;2.33;;;18.80;90.60;;;;;;6238893;23;20000;-74
2023/10/22 00:56:05;;;;;;;7.75;2.53;;;18.80;90.60;;;;;;6245545;23;20031;-73
2023/10/22 00:58:34;;;;;;;5.97;2.35;;;18.80;90.60;;;;;;6245827;23;20000;-73
2023/10/22 01:01:03;;;;;;;13.38;2.42;;;18.90;90.60;;;;;;6245696;23;20342;-73
2023/10/22 01:03:29;;;;;;;9.15;2.88;;;18.90;90.50;;;;;;6211188;23;20077;-73
2023/10/22 01:05:56;;;;;;;6.47;2.30;;;18.90;90.70;;;;;;6217421;23;20450;-72
2023/10/22 01:08:21;;;;;;;7.45;2.70;;;18.90;90.60;;;;;;6245941;23;20077;-73
2023/10/22 01:10:47;;;;;;;10.07;2.80;;;18.90;90.70;;;;;;6245913;23;20096;-73
2023/10/22 01:13:14;;;;;;;7.93;2.22;;;18.90;90.80;;;;;;6246046;23;20020;-74
2023/10/22 01:15:40;;;;;;;9.05;2.55;;;18.90;90.70;;;;;;6244633;23;20002;-73
2023/10/22 01:18:07;;;;;;;6.90;2.38;;;18.90;90.70;;;;;;6245548;23;20087;-72
2023/10/22 01:20:33;;;;;;;7.18;2.10;;;18.90;90.70;;;;;;6246072;23;20004;-73
2023/10/22 01:22:59;;;;;;;8.77;2.17;;;18.90;90.70;;;;;;6242877;23;20027;-73
2023/10/22 01:25:25;;;;;;;8.68;2.15;;;18.90;90.70;;;;;;6246195;23;20334;-73
2023/10/22 01:27:51;;;;;;;10.60;2.85;;;18.90;90.70;;;;;;6255453;23;20026;-74
2023/10/22 01:30:17;;;;;;;7.78;2.10;;;18.90;90.60;;;;;;6249912;23;20004;-72
2023/10/22 01:32:42;;;;;;;7.90;2.17;;;18.90;90.60;;;;;;6245965;23;20000;-73
2023/10/22 01:35:10;;;;;;;6.55;2.15;;;19.00;90.70;;;;;;6245868;23;20007;-74
2023/10/22 01:37:36;;;;;;;10.80;1.80;;;19.00;90.60;;;;;;6218653;23;20374;-73
2023/10/22 01:40:03;;;;;;;8.90;2.33;;;19.10;90.60;;;;;;6245908;23;20000;-74
2023/10/22 01:42:30;;;;;;;5.82;2.08;;;19.10;90.50;;;;;;6245785;23;20000;-74
2023/10/22 01:44:56;;;;;;;7.07;2.63;;;19.10;90.40;;;;;;6245699;23;20000;-72
2023/10/22 01:47:21;;;;;;;11.90;2.65;;;19.10;90.50;;;;;;6245511;23;20446;-74
2023/10/22 01:49:47;;;;;;;8.20;2.53;;;19.00;90.40;;;;;;6245662;23;20098;-74
2023/10/22 01:52:14;;;;;;;4.82;2.30;;;19.00;90.50;;;;;;6245533;23;20003;-73
2023/10/22 01:54:40;;;;;;;8.48;2.47;;;19.00;90.50;;;;;;6245759;23;20037;-74
2023/10/22 01:57:07;;;;;;;8.10;2.30;;;19.00;90.50;;;;;;6245318;23;20019;-73
2023/10/22 01:59:32;;;;;;;4.97;2.03;;;19.00;90.50;;;;;;6245400;23;19996;-73
2023/10/22 02:01:58;;;;;;;7.03;2.30;;;19.00;90.40;;;;;;6245621;23;20134;-72
2023/10/22 02:04:24;;;;;;;7.32;2.20;;;19.10;90.50;;;;;;6245394;23;20003;-73
2023/10/22 02:06:49;;;;;;;9.65;3.05;;;19.10;90.50;;;;;;6245596;23;20386;-73
2023/10/22 02:09:16;;;;;;;10.27;2.80;;;19.10;90.50;;;;;;6245405;23;20027;-73
2023/10/22 02:11:43;;;;;;;8.90;2.50;;;19.20;90.50;;;;;;6245768;23;20008;-73
2023/10/22 02:14:09;;;;;;;8.25;2.58;;;19.20;90.40;;;;;;6245830;23;20429;-74
2023/10/22 02:16:34;;;;;;;7.20;2.47;;;19.20;90.40;;;;;;6245479;23;20062;-72
2023/10/22 02:19:00;;;;;;;6.30;2.70;;;19.20;90.40;;;;;;6245590;23;20000;-73
2023/10/22 02:21:26;;;;;;;8.48;2.40;;;19.20;90.40;;;;;;6246018;23;20008;-74
2023/10/22 02:23:52;;;;;;;9.82;2.90;;;19.20;90.40;;;;;;6245332;23;20004;-74
2023/10/22 02:26:19;;;;;;;7.03;2.63;;;19.10;90.40;;;;;;6218299;23;20008;-73
2023/10/22 02:28:45;;;;;;;7.45;2.78;;;19.10;90.40;;;;;;6245569;23;20008;-74
2023/10/22 02:31:11;;;;;;;9.80;3.05;;;19.20;90.40;;;;;;6245577;23;20003;-74
2023/10/22 02:33:38;;;;;;;5.60;2.40;;;19.20;90.50;;;;;;6245243;23;20489;-73
2023/10/22 02:36:04;;;;;;;8.27;2.88;;;19.20;90.40;;;;;;6245367;23;20019;-73
2023/10/22 02:38:30;;;;;;;12.73;3.03;;;19.20;90.40;;;;;;6245219;23;20004;-73
2023/10/22 02:40:55;;;;;;;5.75;2.20;;;19.10;90.40;;;;;;6245144;23;20346;-73
2023/10/22 02:43:21;;;;;;;6.10;2.53;;;19.10;90.50;;;;;;6245293;23;20379;-73
2023/10/22 02:45:54;;;;;;;6.88;2.40;;;19.10;90.40;;;;;;6218418;23;20445;-73
2023/10/22 02:48:20;;;;;;;8.60;2.88;;;19.10;90.40;;;;;;6244108;23;20027;-74
2023/10/22 02:50:47;;;;;;;7.25;2.80;;;19.10;90.50;;;;;;6245056;23;19996;-74
2023/10/22 02:53:13;;;;;;;9.02;2.45;;;19.10;90.40;;;;;;6245340;23;20034;-73
2023/10/22 02:55:39;;;;;;;7.13;2.50;;;19.10;90.40;;;;;;6245467;23;20075;-73
2023/10/22 02:58:05;;;;;;;5.65;2.00;;;19.10;90.40;;;;;;6245266;23;20426;-73
2023/10/22 03:00:33;;;;;;;7.78;2.08;;;19.10;90.40;;;;;;6245175;23;20007;-73
2023/10/22 03:02:59;;;;;;;6.63;1.90;;;19.10;90.30;;;;;;6245128;23;20004;-74
2023/10/22 03:05:24;;;;;;;5.43;2.03;;;19.10;90.30;;;;;;6244887;23;20378;-73
2023/10/22 03:07:50;;;;;;;5.35;1.40;;;19.10;90.30;;;;;;6245209;23;20094;-74
2023/10/22 03:10:16;;;;;;;5.05;1.73;;;19.10;90.30;;;;;;6244975;23;20054;-73
2023/10/22 03:12:42;;;;;;;7.50;2.33;;;19.10;90.30;;;;;;6245157;23;20035;-73
2023/10/22 03:15:09;;;;;;;10.32;2.45;;;19.10;90.20;;;;;;6245159;23;20007;-74
2023/10/22 03:17:36;;;;;;;6.28;1.83;;;19.10;90.30;;;;;;6218097;23;20015;-73
2023/10/22 03:20:03;;;;;;;8.95;1.73;;;19.10;90.30;;;;;;6245314;23;20091;-73
2023/10/22 03:22:30;;;;;;;4.50;1.85;;;19.10;90.30;;;;;;6245146;23;20004;-74
2023/10/22 03:24:55;;;;;;;8.43;1.70;;;19.10;90.20;;;;;;6245143;23;20063;-72
2023/10/22 03:27:21;;;;;;;7.15;1.90;;;19.10;90.20;;;;;;6245015;23;20054;-73
2023/10/22 03:29:47;;;;;;;5.22;1.70;;;19.10;90.20;;;;;;6245082;23;20011;-73
2023/10/22 03:32:12;;;;;;;5.95;1.60;;;19.00;90.20;;;;;;6245429;23;20003;-74
2023/10/22 03:34:38;;;;;;;7.25;1.92;;;19.00;90.20;;;;;;6245077;23;20006;-72
2023/10/22 03:37:04;;;;;;;7.35;2.00;;;19.00;90.30;;;;;;6245307;23;20433;-75
2023/10/22 03:39:33;;;;;;;7.25;1.90;;;18.90;90.30;;;;;;6247171;23;20007;-73
2023/10/22 03:41:59;;;;;;;6.15;1.98;;;18.90;90.40;;;;;;6245571;23;20003;-72
2023/10/22 03:44:25;;;;;;;11.07;2.40;;;18.90;90.50;;;;;;6246818;23;20008;-73
2023/10/22 03:46:51;;;;;;;4.82;1.92;;;18.90;90.50;;;;;;6248148;23;20054;-74
2023/10/22 03:49:16;;;;;;;8.07;2.28;;;18.80;90.50;;;;;;6245335;23;20378;-73
2023/10/22 03:51:42;;;;;;;7.28;2.22;;;18.80;90.50;;;;;;6245314;23;20003;-74
2023/10/22 03:54:08;;;;;;;7.57;2.00;;;18.80;90.50;;;;;;6244994;23;20004;-74
2023/10/22 03:56:34;;;;;;;6.32;1.88;;;18.90;90.60;;;;;;6244992;23;20020;-73
2023/10/22 03:59:00;;;;;;;7.72;1.98;;;18.90;90.60;;;;;;6245141;23;19996;-74
2023/10/22 04:01:26;;;;;;;3.45;1.45;;;18.90;90.60;;;;;;6244924;23;20071;-73
2023/10/22 04:03:52;;;;;;;6.35;2.08;;;18.90;90.60;;;;;;6245144;23;20425;-73
2023/10/22 04:06:18;;;;;;;5.53;1.67;;;18.90;90.70;;;;;;6241510;23;20046;-73
2023/10/22 04:08:44;;;;;;;7.90;1.83;;;18.80;90.70;;;;;;6244265;23;20012;-74
2023/10/22 04:11:10;;;;;;;7.78;2.13;;;18.80;90.70;;;;;;6244299;23;20292;-73
2023/10/22 04:13:35;;;;;;;6.10;1.80;;;18.80;90.70;;;;;;6244205;23;20000;-73
2023/10/22 04:16:01;;;;;;;8.63;2.00;;;18.80;90.80;;;;;;6244524;23;20018;-74
2023/10/22 04:18:27;;;;;;;5.95;1.70;;;18.90;90.80;;;;;;6245499;23;20004;-74
2023/10/22 04:20:52;;;;;;;7.22;2.00;;;18.90;90.80;;;;;;6246072;23;20054;-74
2023/10/22 04:23:19;;;;;;;8.07;2.10;;;18.90;90.80;;;;;;6246977;23;20027;-75
2023/10/22 04:25:45;;;;;;;6.03;1.90;;;18.80;90.80;;;;;;6246800;23;20275;-74
2023/10/22 04:28:12;;;;;;;6.18;1.92;;;18.80;90.80;;;;;;6246586;23;20012;-73
2023/10/22 04:30:39;;;;;;;6.22;1.50;;;18.80;90.90;;;;;;6246917;23;19996;-74
2023/10/22 04:33:05;;;;;;;5.60;1.90;;;18.80;90.90;;;;;;6246645;23;20067;-73
2023/10/22 04:35:35;;;;;;;7.53;2.22;;;18.80;90.90;;;;;;6246871;23;20321;-74
2023/10/22 04:38:02;;;;;;;6.10;1.60;;;18.80;91.00;;;;;;6246943;23;20393;-74
2023/10/22 04:40:34;;;;;;;7.40;1.65;;;18.90;90.90;;;;;;6246276;23;19997;-74
2023/10/22 04:43:00;;;;;;;6.65;1.90;;;18.90;90.90;;;;;;6246704;23;20024;-73
2023/10/22 04:45:26;;;;;;;4.80;1.80;;;18.90;90.90;;;;;;6246538;23;20003;-73
2023/10/22 04:47:55;;;;;;;8.55;2.08;;;19.00;90.90;;;;;;6246393;23;20015;-73
2023/10/22 04:50:21;;;;;;;7.75;1.77;;;19.00;90.90;;;;;;6219820;23;20007;-73
2023/10/22 04:52:47;;;;;;;4.75;2.00;;;19.00;90.80;;;;;;6246309;23;20024;-71
2023/10/22 04:55:13;;;;;;;7.47;1.90;;;19.00;90.80;;;;;;6246378;23;20003;-74
2023/10/22 04:57:39;;;;;;;6.43;1.73;;;19.00;90.80;;;;;;6246459;23;20004;-73
2023/10/22 05:00:09;;;;;;;7.97;1.95;;;19.10;90.80;;;;;;6246495;23;20000;-75
2023/10/22 05:02:36;;;;;;;11.02;2.05;;;19.10;90.80;;;;;;6219596;23;20009;-74
2023/10/22 05:05:02;;;;;;;10.23;1.92;;;19.10;90.70;;;;;;6246192;23;20000;-75
2023/10/22 05:07:28;;;;;;;5.40;1.75;;;19.10;90.70;;;;;;6246549;23;20008;-73
2023/10/22 05:09:53;;;;;;;7.68;1.80;;;19.10;90.70;;;;;;6245768;23;20409;-74
2023/10/22 05:12:19;;;;;;;5.35;1.40;;;19.20;90.60;;;;;;6246252;23;20027;-74
2023/10/22 05:14:45;;;;;;;6.43;1.80;;;19.20;90.60;;;;;;6245970;23;20152;-74
2023/10/22 05:17:10;;;;;;;8.57;2.22;;;19.20;90.50;;;;;;6245922;23;20438;-73
2023/10/22 05:19:36;;;;;;;4.10;1.80;;;19.20;90.60;;;;;;6246235;23;20004;-74
2023/10/22 05:22:04;;;;;;;9.48;1.70;;;19.30;90.60;;;;;;6219119;23;20012;-74
2023/10/22 05:24:30;;;;;;;8.45;2.00;;;19.30;90.50;;;;;;6245885;23;20082;-75
2023/10/22 05:26:56;;;;;;;9.32;1.90;;;19.30;90.50;;;;;;6246046;23;20482;-73
2023/10/22 05:29:22;;;;;;;7.00;2.03;;;19.20;90.50;;;;;;6245620;23;20040;-73
2023/10/22 05:31:48;;;;;;;4.55;1.63;;;19.20;90.60;;;;;;6245892;23;20023;-74
2023/10/22 05:34:14;;;;;;;11.00;2.25;;;19.20;90.60;;;;;;6245973;23;20005;-74
2023/10/22 05:36:40;;;;;;;7.22;1.98;;;19.20;90.60;;;;;;6245868;23;20049;-74
2023/10/22 05:39:06;;;;;;;7.93;2.00;;;19.20;90.70;;;;;;6246018;23;20325;-75
2023/10/22 05:41:31;;;;;;;6.68;2.20;;;19.20;90.80;;;;;;6246279;23;20008;-73
2023/10/22 05:44:00;;;;;;;6.07;1.67;;;19.20;90.70;;;;;;6245841;23;20022;-73
2023/10/22 05:46:27;;;;;;;7.60;2.75;;;19.20;90.70;;;;;;6246545;23;20035;-74
2023/10/22 05:48:53;;;;;;;7.22;2.90;;;19.10;90.70;;;;;;6246229;23;20008;-73
2023/10/22 05:51:18;;;;;;;7.50;3.53;;;19.10;90.80;;;;;;6245907;23;20000;-75
2023/10/22 05:53:47;;;;;;;8.00;3.83;;;19.10;90.80;;;;;;6245791;23;20101;-74
2023/10/22 05:56:13;;;;;;;10.43;3.78;;;19.00;90.90;;;;;;6246149;23;20001;-74
2023/10/22 05:58:39;;;;;;;8.25;3.70;;;19.00;90.90;;;;;;6246353;23;20012;-75
2023/10/22 06:01:05;;;;;;;8.07;3.63;;;18.90;90.90;;;;;;6246017;23;20430;-75
2023/10/22 06:03:31;;;;;;;9.57;3.38;;;18.90;91.00;;;;;;6245646;23;20000;-74
2023/10/22 06:05:56;;;;;;;10.27;4.03;;;18.90;91.10;;;;;;6245592;23;20133;-75
2023/10/22 06:08:22;;;;;;;7.55;3.47;;;18.90;91.10;;;;;;6245310;23;20012;-75
2023/10/22 06:10:48;;;;;;;8.32;3.63;;;18.90;91.10;;;;;;6245630;23;20012;-74
2023/10/22 06:13:14;;;;;;;7.78;2.53;;;19.00;91.30;;;;;;6244838;23;20011;-74
2023/10/22 06:15:43;;;;;;;9.98;3.00;;;19.00;91.10;;;;;;6245657;23;19996;-74
2023/10/22 06:18:10;;;;;;;8.05;2.75;;;19.00;91.00;;;;;;6245452;23;20373;-74
2023/10/22 06:20:37;;;;;;;9.80;2.75;;;18.90;91.10;;;;;;6245638;23;20445;-74
2023/10/22 06:23:04;;;;;;;6.80;2.50;;;19.00;91.10;;;;;;6245441;23;20046;-74
2023/10/22 06:25:33;;;;;;;9.20;2.50;;;19.00;91.10;;;;;;6245234;23;20004;-73
2023/10/22 06:28:02;;;;;;;7.07;2.33;;;19.00;91.10;;;;;;6245170;23;20008;-74
2023/10/22 06:30:28;;;;;;;8.13;2.47;;;19.00;91.10;;;;;;6245438;23;20054;-75
2023/10/22 06:32:58;;;;;;;11.13;2.92;;;19.10;90.90;;;;;;6245822;23;20004;-73
2023/10/22 06:35:28;;;;;;;8.45;2.47;;;19.20;90.80;;;;;;6218836;23;20008;-73
2023/10/22 06:37:53;;;;;;;11.73;3.30;;;19.40;90.80;;;;;;6218707;23;20016;-74
2023/10/22 06:40:20;;;;;;;7.07;2.42;;;19.50;90.70;;;;;;6245024;23;20465;-74
2023/10/22 06:42:48;;;;;;;9.82;2.85;;;19.70;90.50;;;;;;6246104;23;19996;-74
2023/10/22 06:45:14;;;;;;;7.30;3.10;;;19.90;90.30;;;;;;6245891;23;20008;-75
2023/10/22 06:47:40;;;;;;;11.43;5.85;;;20.00;90.20;;;;;;6245403;23;20090;-74
2023/10/22 06:50:13;;;;;;;9.57;3.10;;;20.20;90.40;;;;;;6218156;23;20334;-75
2023/10/22 06:52:41;;;;;;;10.77;2.83;;;20.40;90.00;;;;;;6245495;23;20055;-74
2023/10/22 06:55:07;;;;;;;9.10;2.70;;;20.50;89.70;;;;;;6245724;23;20472;-75
2023/10/22 06:57:33;;;;;;;13.80;3.22;;;20.60;89.60;;;;;;6218788;23;20004;-75
2023/10/22 06:59:59;;;;;;;9.50;3.30;;;20.70;89.30;;;;;;6245676;23;20000;-74
2023/10/22 07:02:25;;;;;;;9.60;2.80;;;20.90;88.90;;;;;;6245413;23;20058;-76
2023/10/22 07:04:52;;;;;;;8.02;3.13;;;21.00;88.60;;;;;;6245701;23;20016;-75
2023/10/22 07:07:18;;;;;;;11.23;3.38;;;21.10;88.50;;;;;;6245640;23;20000;-75
2023/10/22 07:09:44;;;;;;;8.20;2.50;;;21.30;88.20;;;;;;6243829;23;20147;-73
2023/10/22 07:12:09;;;;;;;10.07;4.53;;;21.30;88.00;;;;;;6244959;23;20000;-75
2023/10/22 07:14:35;;;;;;;8.15;2.45;;;21.40;87.90;;;;;;6243271;23;20004;-75
2023/10/22 07:17:01;;;;;;;8.75;2.10;;;21.60;87.70;;;;;;6217195;23;20008;-75
2023/10/22 07:19:27;;;;;;;10.77;2.58;;;21.70;87.40;;;;;;6244668;23;20406;-75
2023/10/22 07:21:53;;;;;;;8.40;2.08;;;21.80;87.00;;;;;;6218139;23;20121;-74
2023/10/22 07:24:18;;;;;;;6.07;2.33;;;21.90;86.90;;;;;;6214930;23;20008;-75
2023/10/22 07:26:44;;;;;;;8.90;2.70;;;22.00;86.90;;;;;;6245074;23;20000;-75
2023/10/22 07:29:12;;;;;;;9.13;2.63;;;22.10;86.60;;;;;;6244281;23;20020;-75
2023/10/22 07:31:38;;;;;;;7.32;2.63;;;22.10;86.50;;;;;;6243839;23;20434;-74
2023/10/22 07:34:03;;;;;;;10.18;2.50;;;22.10;86.20;;;;;;6240472;23;20011;-75
2023/10/22 07:36:29;;;;;;;11.45;2.38;;;22.20;86.20;;;;;;6244995;23;20000;-74
2023/10/22 07:38:55;;;;;;;11.75;2.92;;;22.20;86.10;;;;;;6244436;23;20092;-75
2023/10/22 07:41:20;;;;;;;11.00;3.47;;;22.20;86.20;;;;;;6244134;23;20003;-75
2023/10/22 07:43:46;;;;;;;10.90;2.45;;;22.20;86.10;;;;;;6240354;23;20411;-76
2023/10/22 07:46:14;;;;;;;10.35;3.08;;;22.20;86.10;;;;;;6244850;23;20303;-74
2023/10/22 07:48:42;;;;;;;7.32;1.83;;;22.20;86.10;;;;;;6243784;23;20083;-75
2023/10/22 07:51:11;;;;;;;11.10;2.40;;;22.20;86.10;;;;;;6244614;23;20106;-78
2023/10/22 07:53:38;;;;;;;7.65;2.10;;;22.30;86.00;;;;;;6240548;23;20011;-76
2023/10/22 07:56:08;;;;;;;13.85;3.58;;;22.30;85.90;;;;;;6244792;23;20000;-78
2023/10/22 07:58:35;;;;;;;10.38;2.47;;;22.40;85.90;;;;;;6243946;23;20010;-77
2023/10/22 08:01:01;;;;;;;10.50;2.72;;;22.50;85.30;;;;;;6244069;23;19996;-80
2023/10/22 08:03:30;;;;;;;11.60;2.42;;;22.60;85.00;;;;;;6239121;23;20035;-82
2023/10/22 08:06:01;;;;;;;12.80;2.83;;;22.70;84.60;;;;;;6245042;23;19996;-79
2023/10/22 08:08:26;;;;;;;14.27;2.58;;;22.80;84.10;;;;;;6253444;23;20008;-83
2023/10/22 08:10:57;;;;;;;8.88;2.90;;;22.90;83.60;;;;;;6268257;22;20021;-86
2023/10/22 08:13:23;;;;;;;9.07;2.40;;;23.00;83.20;;;;;;6264554;23;20418;-82
2023/10/22 08:15:49;;;;;;;9.07;2.00;;;23.00;82.90;;;;;;6237143;23;20004;-80
2023/10/22 08:18:15;;;;;;;9.32;2.22;;;23.10;82.80;;;;;;6256551;23;20496;-87
2023/10/22 08:20:41;;;;;;;10.63;2.40;;;23.20;82.20;;;;;;6248223;23;20001;-87
2023/10/22 08:23:07;;;;;;;11.05;2.50;;;23.30;82.00;;;;;;6215093;23;20016;-85
2023/10/22 08:25:33;;;;;;;9.95;2.47;;;23.40;81.50;;;;;;6215588;23;20084;-84
2023/10/22 08:27:59;;;;;;;8.65;2.25;;;23.50;81.10;;;;;;6244850;23;20517;-83
2023/10/22 08:30:24;;;;;;;9.88;2.33;;;23.60;81.00;;;;;;6243856;23;19996;-82
2023/10/22 08:32:51;;;;;;;10.48;2.17;;;23.60;80.60;;;;;;6242287;23;20034;-85
2023/10/22 08:35:16;;;;;;;7.93;2.10;;;23.60;80.40;;;;;;6239681;23;20000;-83
2023/10/22 08:37:42;;;;;;;10.07;2.20;;;23.60;80.10;;;;;;6245192;23;20422;-82
2023/10/22 08:40:08;;;;;;;8.50;2.40;;;23.60;80.20;;;;;;6243991;23;20000;-82
2023/10/22 08:42:35;;;;;;;10.68;2.45;;;23.60;80.10;;;;;;6244353;23;20011;-83
2023/10/22 08:45:06;;;;;;;10.65;2.40;;;23.70;79.80;;;;;;6237093;23;20003;-83
2023/10/22 08:47:33;;;;;;;7.88;1.80;;;23.80;79.60;;;;;;6244603;23;20012;-83
2023/10/22 08:50:00;;;;;;;10.27;2.40;;;23.90;79.00;;;;;;6244003;23;20407;-84
2023/10/22 08:52:27;;;;;;;9.57;2.28;;;24.00;78.70;;;;;;6244215;23;20000;-83
2023/10/22 08:54:53;;;;;;;8.68;2.08;;;24.10;78.60;;;;;;6235523;23;20112;-83
2023/10/22 08:57:20;;;;;;;11.13;2.10;;;24.10;78.30;;;;;;6245427;23;20004;-84
2023/10/22 08:59:47;;;;;;;6.88;2.53;;;24.20;77.80;;;;;;6243366;23;20004;-82
2023/10/22 09:02:21;;;;;;;9.63;2.47;;;24.10;77.80;;;;;;6243991;23;20323;-84
2023/10/22 09:04:47;;;;;;;;;;;24.20;77.40;;;;;;6238037;23;20082;-85
2023/10/22 09:07:12;;;;;;;6.25;1.70;;;24.20;77.60;;;;;;6245233;23;20318;-83
2023/10/22 09:09:39;;;;;;;8.70;1.90;;;24.30;77.20;;;;;;6244801;23;20059;-83
2023/10/22 09:12:10;;;;;;;7.88;1.60;;;24.30;76.90;;;;;;6246062;23;20004;-77
2023/10/22 09:14:36;;;;;;;9.52;1.90;;;24.40;76.90;;;;;;6244541;23;20438;-75
2023/10/22 09:17:16;;;;;;;8.45;2.40;;;24.50;76.30;;;;;;6244084;23;20130;-75
2023/10/22 09:19:47;;;;;;;7.35;1.60;;;24.70;76.40;;;;;;6245181;23;20334;-82
2023/10/22 09:22:26;;;;;;;6.60;2.05;;;24.70;76.60;;;;;;6246032;23;20008;-78
2023/10/22 09:24:55;;;;;;;7.22;1.88;;;24.60;76.50;;;;;;6245927;23;20008;-78
2023/10/22 09:27:25;;;;;;;11.57;2.28;;;24.60;77.30;;;;;;6243499;23;20004;-80
2023/10/22 09:29:53;;;;;;;10.82;2.58;;;24.40;76.10;;;;;;6218443;23;20054;-79
2023/10/22 09:32:19;;;;;;;9.23;2.63;;;24.30;76.60;;;;;;6245074;23;20035;-78
2023/10/22 09:34:46;;;;;;;8.68;1.92;;;24.10;77.10;;;;;;6245835;23;20070;-78
2023/10/22 09:37:11;;;;;;;11.25;2.40;;;23.90;77.30;;;;;;6243159;23;20000;-82
2023/10/22 09:39:44;;;;;;;12.20;2.63;;;23.80;78.00;;;;;;6244144;23;20338;-83
2023/10/22 09:42:11;;;;;;;9.23;2.40;;;23.60;78.30;;;;;;6246672;23;20004;-78
2023/10/22 09:44:38;;;;;;;11.60;2.10;;;23.60;78.70;;;;;;6246037;23;20015;-77
2023/10/22 09:47:08;;;;;;;8.70;2.58;;;23.50;79.70;;;;;;6245134;23;20000;-80
2023/10/22 09:49:35;;;;;;;13.30;2.53;;;23.50;79.60;;;;;;6216813;23;20078;-82
2023/10/22 09:52:03;;;;;;;14.23;2.28;;;23.40;79.60;;;;;;6246256;23;20058;-85
2023/10/22 09:54:39;;;;;;;8.63;2.05;;;23.40;79.90;;;;;;6246308;23;20014;-87
2023/10/22 09:57:13;;;;;;;7.03;2.03;;;23.30;80.30;;;;;;6248573;23;20525;-91
2023/10/22 09:59:41;;;;;;;8.52;2.05;;;23.30;80.50;;;;;;6247834;23;20000;-88
2023/10/22 10:02:17;;;;;;;10.98;2.80;;;23.30;81.20;;;;;;6248586;23;20001;-81
2023/10/22 10:04:43;;;;;;;7.10;1.75;;;23.30;80.70;;;;;;6247517;23;20008;-86
2023/10/22 10:07:10;;;;;;;10.95;2.30;;;23.30;81.10;;;;;;6220873;23;20035;-88
2023/10/22 10:09:36;;;;;;;10.40;2.35;;;23.40;81.00;;;;;;6246543;23;20016;-86
2023/10/22 10:12:08;;;;;;;9.13;2.42;;;23.40;80.60;;;;;;6251220;23;19996;-82
2023/10/22 10:14:36;;;;;;;12.63;2.22;;;23.30;80.60;;;;;;6247481;23;20090;-81
2023/10/22 10:17:03;;;;;;;7.35;1.98;;;23.40;80.40;;;;;;6244838;23;20011;-80
2023/10/22 10:19:29;;;;;;;9.45;2.20;;;23.40;79.60;;;;;;6244035;23;20086;-77
2023/10/22 10:21:55;;;;;;;11.90;2.30;;;23.50;79.50;;;;;;6263383;23;20000;-77
2023/10/22 10:24:26;;;;;;;7.90;2.15;;;23.50;79.20;;;;;;6263396;23;20452;-79
2023/10/22 10:26:55;;;;;;;7.07;2.20;;;23.50;79.80;;;;;;6244268;23;20059;-80
2023/10/22 10:29:24;;;;;;;11.50;2.03;;;23.50;79.00;;;;;;6248665;23;20015;-79
2023/10/22 10:31:52;;;;;;;8.77;2.42;;;23.60;80.00;;;;;;6246640;23;20070;-79
2023/10/22 10:34:36;;;;;;;11.68;2.40;;;23.50;79.20;;;;;;6245972;23;20039;-81
2023/10/22 10:37:14;;;;;;;9.70;2.05;;;23.50;79.00;;;;;;6244125;23;20008;-71
2023/10/22 10:39:40;;;;;;;9.35;2.50;;;23.60;79.00;;;;;;6243492;23;20330;-77
2023/10/22 10:42:07;;;;;;;8.60;2.13;;;23.80;78.90;;;;;;6245355;23;20000;-80
2023/10/22 10:44:56;;;;;;;8.05;2.00;;;23.90;78.10;;;;;;6217206;23;20326;-77
2023/10/22 10:47:22;;;;;;;7.03;1.38;;;24.00;77.80;;;;;;6215441;23;20004;-77
2023/10/22 10:49:59;;;;;;;6.28;1.90;;;23.90;76.30;;;;;;6243279;23;20071;-72
2023/10/22 10:52:24;;;;;;;9.95;2.05;;;23.90;76.40;;;;;;6245398;23;19996;-75
2023/10/22 10:55:14;;;;;;;12.77;2.22;;;24.10;75.50;;;;;;6245030;23;20055;-77
2023/10/22 10:57:50;;;;;;;5.80;1.58;;;24.30;75.20;;;;;;6239541;23;20008;-76
2023/10/22 11:00:27;;;;;;;9.75;1.83;;;24.60;73.90;;;;;;6220399;23;20004;-78
2023/10/22 11:02:53;;;;;;;9.48;2.05;;;24.80;73.50;;;;;;6244922;23;20050;-77
2023/10/22 11:05:39;;;;;;;7.95;1.70;;;25.00;72.00;;;;;;6244751;23;20000;-76
2023/10/22 11:08:18;;;;;;;7.60;1.95;;;25.10;70.90;;;;;;6241561;23;20015;-76
2023/10/22 11:10:45;;;;;;;6.30;1.52;;;25.10;70.50;;;;;;6244886;23;20016;-77
2023/10/22 11:13:11;;;;;;;5.22;1.42;;;25.00;69.00;;;;;;6245917;23;20515;-79
2023/10/22 11:15:38;;;;;;;9.13;1.58;;;24.90;67.00;;;;;;6245343;23;19996;-74
2023/10/22 11:18:06;;;;;;;7.68;1.75;;;24.90;66.00;;;;;;6240948;23;20007;-77
2023/10/22 11:20:33;;;;;;;5.32;1.95;;;24.90;65.40;;;;;;6244967;23;20054;-70
2023/10/22 11:22:59;;;;;;;12.70;3.33;;;24.90;64.20;;;;;;6245622;23;20095;-72
2023/10/22 11:25:26;;;;;;;22.25;5.10;;;24.90;64.50;;;;;;6245373;23;20003;-72
2023/10/22 11:27:53;;;;;;;4.50;1.45;;;25.00;65.40;;;;;;6241433;23;20111;-73
2023/10/22 11:30:36;;;;;;;5.57;1.40;;;25.00;64.00;;;;;;6244324;23;20058;-75
2023/10/22 11:33:10;;;;;;;7.00;1.42;;;25.00;62.40;;;;;;6245922;23;20390;-77
2023/10/22 11:35:37;;;;;;;13.52;2.42;;;24.90;61.80;;;;;;6243319;23;20434;-76
2023/10/22 11:38:03;;;;;;;8.93;2.17;;;24.90;62.70;;;;;;6240600;23;20499;-75
2023/10/22 11:40:30;;;;;;;8.27;1.65;;;24.80;62.10;;;;;;6217425;23;20008;-76
2023/10/22 11:43:06;;;;;;;5.00;1.40;;;24.90;61.30;;;;;;6244821;23;19996;-76
2023/10/22 11:45:35;;;;;;;7.00;1.60;;;25.00;60.70;;;;;;6244649;23;20010;-78
2023/10/22 11:48:15;;;;;;;7.72;1.60;;;25.00;61.50;;;;;;6240655;23;20054;-78
2023/10/22 11:50:49;;;;;;;9.32;1.80;;;25.00;61.00;;;;;;6243636;23;20004;-78
2023/10/22 11:53:16;;;;;;;5.72;1.45;;;25.10;61.30;;;;;;6244846;23;20307;-77
2023/10/22 11:55:42;;;;;;;6.45;1.30;;;25.20;60.70;;;;;;6244975;23;20008;-74
2023/10/22 11:58:18;;;;;;;6.53;1.27;;;25.20;59.90;;;;;;6240667;23;20380;-82
2023/10/22 12:00:45;;;;;;;10.20;1.70;;;25.20;59.40;;;;;;6216835;23;20005;-78
2023/10/22 12:03:11;;;;;;;6.78;1.42;;;25.20;59.30;;;;;;6244708;23;20007;-77
2023/10/22 12:05:37;;;;;;;5.90;1.45;;;25.30;59.40;;;;;;6243451;23;20001;-78
2023/10/22 12:08:03;;;;;;;4.72;1.45;;;25.40;59.40;;;;;;6239888;23;20435;-77
2023/10/22 12:10:28;;;;;;;11.48;2.10;;;25.40;58.90;;;;;;6243622;23;20070;-76
2023/10/22 12:12:54;;;;;;;7.13;1.50;;;25.40;59.00;;;;;;6244912;23;20004;-80
2023/10/22 12:15:20;;;;;;;4.93;1.40;;;25.40;58.30;;;;;;6244390;23;20000;-79
2023/10/22 12:17:46;;;;;;;5.65;1.65;;;25.40;58.30;;;;;;6240436;23;20007;-80
2023/10/22 12:20:12;;;;;;;4.93;1.48;;;25.40;58.10;;;;;;6245215;23;20007;-79
2023/10/22 12:22:37;;;;;;;5.75;1.20;;;25.50;57.90;;;;;;6245319;23;20004;-79
2023/10/22 12:25:04;;;;;;;7.57;1.52;;;25.50;58.10;;;;;;6245063;23;20383;-80
2023/10/22 12:27:33;;;;;;;7.72;1.58;;;25.60;58.10;;;;;;6241455;23;20525;-77
2023/10/22 12:29:59;;;;;;;8.68;1.48;;;25.60;58.20;;;;;;6245462;23;20419;-79
2023/10/22 12:32:25;;;;;;;5.22;1.40;;;25.70;57.90;;;;;;6253045;23;20007;-79
2023/10/22 12:34:51;;;;;;;7.97;1.90;;;25.60;57.60;;;;;;6255627;23;20000;-76
2023/10/22 12:37:16;;;;;;;4.75;1.27;;;25.60;57.70;;;;;;6262896;23;20081;-75
2023/10/22 12:39:42;;;;;;;5.10;1.17;;;25.70;57.50;;;;;;6254935;23;20008;-75
2023/10/22 12:42:09;;;;;;;11.80;2.58;;;25.70;57.10;;;;;;6247161;23;20031;-76
2023/10/22 12:44:34;;;;;;;11.63;2.28;;;25.70;57.50;;;;;;6247001;23;20378;-81